Time;durP1;ratioP1;P1;durP2;ratioP2;P2;SDS_P1;SDS_P2;PMS_P1;PMS_P2;Temp;Humidity;BMP_temperature;BMP_pressure;BME280_temperature;BME280_humidity;BME280_pressure;Samples;Min_cycle;Max_cycle;Signal;HPM_P1;HPM_P2
2021/05/14 00:02:03;;;;;;;17.30;13.20;;;11.70;99.90;;;;;;4388047;32;20187;-66
2021/05/14 00:04:30;;;;;;;17.07;13.47;;;11.60;99.90;;;;;;4390518;32;20162;-65
2021/05/14 00:06:56;;;;;;;15.00;12.23;;;11.60;99.90;;;;;;4383519;32;20172;-66
2021/05/14 00:09:23;;;;;;;16.93;13.40;;;11.60;99.90;;;;;;4388865;32;20215;-65
2021/05/14 00:11:49;;;;;;;17.73;13.13;;;11.60;99.90;;;;;;4382292;32;20180;-66
2021/05/14 00:14:15;;;;;;;21.57;13.33;;;11.60;99.90;;;;;;4391035;32;20156;-65
2021/05/14 00:16:43;;;;;;;17.77;13.70;;;11.50;99.90;;;;;;4389467;32;20164;-65
2021/05/14 00:19:10;;;;;;;20.70;14.90;;;11.50;99.90;;;;;;4390553;32;20184;-63
2021/05/14 00:21:37;;;;;;;16.83;13.47;;;11.50;99.90;;;;;;4380916;32;20190;-64
2021/05/14 00:24:04;;;;;;;16.80;13.53;;;11.50;99.90;;;;;;4390884;32;20147;-64
2021/05/14 00:26:31;;;;;;;19.93;13.93;;;11.50;99.90;;;;;;4390748;32;20270;-65
2021/05/14 00:28:57;;;;;;;22.17;15.20;;;11.50;99.90;;;;;;4390170;32;20235;-65
2021/05/14 00:31:24;;;;;;;24.47;15.93;;;11.50;99.90;;;;;;4380973;32;20198;-65
2021/05/14 00:33:53;;;;;;;19.10;13.80;;;11.50;99.90;;;;;;4389993;32;20152;-65
2021/05/14 00:36:19;;;;;;;22.30;15.13;;;11.50;99.90;;;;;;4389835;32;20175;-66
2021/05/14 00:38:45;;;;;;;19.40;15.23;;;11.50;99.90;;;;;;4393148;32;20226;-65
2021/05/14 00:41:13;;;;;;;21.40;15.17;;;11.50;99.90;;;;;;4385137;32;20218;-65
2021/05/14 00:43:39;;;;;;;21.13;15.83;;;11.50;99.90;;;;;;4390122;32;20231;-65
2021/05/14 00:46:06;;;;;;;23.10;15.97;;;11.50;99.90;;;;;;4390588;32;20168;-65
2021/05/14 00:48:35;;;;;;;22.77;16.43;;;11.60;99.90;;;;;;4380937;32;20176;-65
2021/05/14 00:51:02;;;;;;;25.37;16.93;;;11.60;99.90;;;;;;4385236;32;20264;-65
2021/05/14 00:53:28;;;;;;;21.37;16.70;;;11.50;99.90;;;;;;4382165;32;20228;-65
2021/05/14 00:55:54;;;;;;;23.40;16.63;;;11.40;99.90;;;;;;4379659;32;20215;-65
2021/05/14 00:58:21;;;;;;;20.57;15.93;;;11.40;99.90;;;;;;4375189;32;20330;-65
2021/05/14 01:00:47;;;;;;;25.57;16.80;;;11.40;99.90;;;;;;4382766;32;20156;-64
2021/05/14 01:03:22;;;;;;;24.87;19.10;;;11.30;99.90;;;;;;4375564;32;20290;-65
2021/05/14 01:22:43;;;;;;;22.13;18.20;;;11.30;99.90;;;;;;4385082;32;20171;-66
2021/05/14 01:25:11;;;;;;;27.60;19.20;;;11.30;99.90;;;;;;4391017;32;20467;-65
2021/05/14 01:27:37;;;;;;;28.27;18.90;;;11.40;99.90;;;;;;4388954;32;20172;-64
2021/05/14 01:30:05;;;;;;;24.27;17.80;;;11.40;99.90;;;;;;4390448;32;20210;-65
2021/05/14 01:32:31;;;;;;;24.23;18.07;;;11.30;99.90;;;;;;4383714;32;20203;-64
2021/05/14 01:34:58;;;;;;;22.43;17.63;;;11.40;99.90;;;;;;4390702;32;20178;-64
2021/05/14 01:37:24;;;;;;;25.03;18.87;;;11.30;99.90;;;;;;4390526;32;20160;-65
2021/05/14 01:39:51;;;;;;;23.80;19.10;;;11.30;99.90;;;;;;4390338;32;20213;-64
2021/05/14 01:42:18;;;;;;;31.63;20.87;;;11.30;99.90;;;;;;4388877;32;20461;-65
2021/05/14 01:44:44;;;;;;;25.77;18.97;;;11.30;99.90;;;;;;4390079;32;20164;-65
2021/05/14 01:47:16;;;;;;;23.60;18.23;;;11.30;99.90;;;;;;4391300;32;20217;-64
2021/05/14 01:49:43;;;;;;;23.73;18.07;;;11.30;99.90;;;;;;4391115;32;20164;-64
2021/05/14 01:52:09;;;;;;;31.83;21.83;;;11.50;99.90;;;;;;4387784;32;20160;-64
2021/05/14 01:54:38;;;;;;;33.27;22.40;;;11.10;99.90;;;;;;4383016;32;20211;-64
2021/05/14 01:57:06;;;;;;;39.20;25.63;;;10.90;99.90;;;;;;4389210;32;20205;-63
2021/05/14 01:59:34;;;;;;;31.43;22.60;;;10.90;99.90;;;;;;4388047;32;20156;-65
2021/05/14 02:02:01;;;;;;;28.30;20.47;;;10.90;99.90;;;;;;4382852;32;20184;-66
2021/05/14 02:04:27;;;;;;;35.03;23.23;;;11.00;99.90;;;;;;4383375;32;20160;-64
2021/05/14 02:06:57;;;;;;;26.77;20.37;;;10.90;99.90;;;;;;4383381;32;20182;-63
2021/05/14 02:09:23;;;;;;;29.93;21.40;;;10.90;99.90;;;;;;4389319;32;20177;-62
2021/05/14 02:11:49;;;;;;;30.87;21.83;;;10.70;99.90;;;;;;4386555;32;20211;-62
2021/05/14 02:14:17;;;;;;;31.83;22.60;;;10.50;99.90;;;;;;4383126;32;20156;-62
2021/05/14 02:16:45;;;;;;;34.63;23.83;;;10.60;99.90;;;;;;4386668;32;20155;-64
2021/05/14 02:19:13;;;;;;;32.23;23.27;;;10.50;99.90;;;;;;4381943;32;20619;-64
2021/05/14 02:21:39;;;;;;;28.33;20.77;;;10.60;99.90;;;;;;4394430;32;20178;-63
2021/05/14 02:24:07;;;;;;;24.33;19.23;;;10.70;99.90;;;;;;4389547;32;20160;-65
2021/05/14 02:26:36;;;;;;;29.70;21.23;;;10.70;99.90;;;;;;4389736;32;20165;-64
2021/05/14 02:29:03;;;;;;;31.63;20.80;;;10.50;99.90;;;;;;4389345;32;20172;-65
2021/05/14 02:31:31;;;;;;;25.40;20.47;;;10.60;99.90;;;;;;4389773;32;20155;-64
2021/05/14 02:33:57;;;;;;;31.10;21.70;;;10.60;99.90;;;;;;4386718;32;20593;-64
2021/05/14 02:36:24;;;;;;;25.73;20.23;;;10.60;99.90;;;;;;4389576;32;20165;-62
2021/05/14 02:38:51;;;;;;;28.57;19.37;;;10.50;99.90;;;;;;4390045;32;20579;-64
2021/05/14 02:41:17;;;;;;;29.10;22.20;;;10.50;99.90;;;;;;4389644;32;20174;-63
2021/05/14 02:43:44;;;;;;;37.50;22.50;;;10.40;99.90;;;;;;4387887;32;20154;-64
2021/05/14 02:46:10;;;;;;;27.20;20.57;;;10.50;99.90;;;;;;4380163;32;20160;-63
2021/05/14 02:48:38;;;;;;;30.67;20.67;;;10.30;99.90;;;;;;4381178;32;20154;-64
2021/05/14 02:51:05;;;;;;;33.27;20.57;;;10.30;99.90;;;;;;4380284;32;20156;-63
2021/05/14 02:53:32;;;;;;;35.47;22.17;;;10.40;99.90;;;;;;4388473;32;20203;-63
2021/05/14 02:55:59;;;;;;;25.87;19.70;;;10.20;99.90;;;;;;4376953;32;20142;-64
2021/05/14 02:58:25;;;;;;;32.77;22.93;;;10.30;99.90;;;;;;4385929;32;20154;-66
2021/05/14 03:00:52;;;;;;;32.03;22.87;;;10.30;99.90;;;;;;4382844;32;20187;-65
2021/05/14 03:03:18;;;;;;;31.30;21.60;;;10.20;99.90;;;;;;4388706;32;20156;-62
2021/05/14 03:05:46;;;;;;;35.70;22.10;;;10.30;99.90;;;;;;4391462;32;20167;-65
2021/05/14 03:08:12;;;;;;;30.73;21.30;;;10.30;99.90;;;;;;4391611;32;20151;-65
2021/05/14 03:10:41;;;;;;;29.37;21.30;;;10.40;99.90;;;;;;4387460;32;20157;-64
2021/05/14 03:13:08;;;;;;;34.77;20.90;;;10.40;99.90;;;;;;4391780;32;20178;-64
2021/05/14 03:15:35;;;;;;;31.40;20.77;;;10.30;99.90;;;;;;4389074;32;20159;-65
2021/05/14 03:18:01;;;;;;;31.60;21.37;;;10.40;99.90;;;;;;4390647;32;20276;-64
2021/05/14 03:20:28;;;;;;;36.80;23.30;;;10.30;99.90;;;;;;4392145;32;20542;-64
2021/05/14 03:22:55;;;;;;;32.47;21.50;;;10.30;99.90;;;;;;4392329;32;20163;-64
2021/05/14 03:25:22;;;;;;;29.23;20.83;;;10.40;99.90;;;;;;4388770;32;20187;-67
2021/05/14 03:27:48;;;;;;;36.13;22.63;;;10.30;99.90;;;;;;4391725;32;20159;-65
2021/05/14 03:30:15;;;;;;;34.33;22.17;;;10.20;99.90;;;;;;4403578;32;20175;-65
2021/05/14 03:32:41;;;;;;;33.37;21.50;;;10.20;99.90;;;;;;4391433;32;20226;-65
2021/05/14 03:35:09;;;;;;;34.40;20.97;;;10.10;99.90;;;;;;4389391;32;20157;-65
2021/05/14 03:37:37;;;;;;;35.37;22.93;;;10.10;99.90;;;;;;4390604;32;20192;-65
2021/05/14 03:40:16;;;;;;;32.70;22.13;;;10.20;99.90;;;;;;4390764;32;20175;-65
2021/05/14 03:42:42;;;;;;;28.53;20.30;;;10.10;99.90;;;;;;4392867;32;20160;-67
2021/05/14 03:45:14;;;;;;;33.70;21.37;;;10.10;99.90;;;;;;4390965;32;20156;-65
2021/05/14 03:47:40;;;;;;;32.73;22.40;;;10.10;99.90;;;;;;4387740;32;20178;-64
2021/05/14 03:50:08;;;;;;;33.27;21.63;;;10.20;99.90;;;;;;4391195;32;20163;-65
2021/05/14 03:52:35;;;;;;;32.57;22.80;;;10.10;99.90;;;;;;4389114;32;20150;-65
2021/05/14 03:55:02;;;;;;;34.97;21.83;;;10.10;99.90;;;;;;4390485;32;20172;-63
2021/05/14 03:57:29;;;;;;;32.73;21.57;;;10.10;99.90;;;;;;4389599;32;20163;-63
2021/05/14 03:59:56;;;;;;;33.73;22.53;;;10.10;99.90;;;;;;4396274;32;20480;-64
2021/05/14 04:02:22;;;;;;;41.43;24.40;;;10.10;99.90;;;;;;4392218;32;20173;-65
2021/05/14 04:04:49;;;;;;;35.93;23.10;;;10.00;99.90;;;;;;4399355;32;20168;-65
2021/05/14 04:07:15;;;;;;;36.03;22.50;;;10.00;99.90;;;;;;4389745;32;20151;-65
2021/05/14 04:09:49;;;;;;;37.30;23.20;;;10.10;99.90;;;;;;4390360;32;20178;-65
2021/05/14 04:15:00;;;;;;;32.10;22.80;;;9.90;99.90;;;;;;4386915;32;20216;-63
2021/05/14 04:17:26;;;;;;;44.47;23.67;;;10.00;99.90;;;;;;4390206;32;20169;-65
2021/05/14 04:19:55;;;;;;;35.10;23.33;;;10.10;99.90;;;;;;4389685;32;20598;-66
2021/05/14 04:22:21;;;;;;;38.87;23.70;;;10.10;99.90;;;;;;4390031;32;20163;-64
2021/05/14 04:24:48;;;;;;;39.43;24.53;;;10.20;99.90;;;;;;4391407;32;20177;-63
2021/05/14 04:27:15;;;;;;;37.33;23.10;;;10.20;99.90;;;;;;4389881;32;20168;-63
2021/05/14 04:29:41;;;;;;;37.00;23.23;;;10.10;99.90;;;;;;4384826;32;20218;-64
2021/05/14 04:32:08;;;;;;;41.17;24.13;;;10.20;99.90;;;;;;4390919;32;20154;-63
2021/05/14 04:34:35;;;;;;;42.97;24.40;;;10.30;99.90;;;;;;4390744;32;20153;-63
2021/05/14 04:37:01;;;;;;;38.83;24.17;;;10.30;99.90;;;;;;4392100;32;20563;-65
2021/05/14 04:39:28;;;;;;;44.27;24.17;;;10.30;99.90;;;;;;4396111;32;20619;-66
2021/05/14 04:41:54;;;;;;;36.33;23.17;;;10.10;99.90;;;;;;4381669;32;20164;-64
2021/05/14 04:44:21;;;;;;;37.43;23.70;;;10.10;99.90;;;;;;4383946;32;20150;-65
2021/05/14 04:46:47;;;;;;;38.73;23.90;;;10.20;99.90;;;;;;4385226;32;20174;-64
2021/05/14 04:49:15;;;;;;;41.87;24.60;;;10.20;99.90;;;;;;4383390;32;20176;-64
2021/05/14 04:51:44;;;;;;;38.07;24.03;;;10.20;99.90;;;;;;4388958;32;20158;-64
2021/05/14 04:54:10;;;;;;;39.07;24.13;;;10.30;99.90;;;;;;4386863;32;20170;-63
2021/05/14 04:56:37;;;;;;;39.17;23.60;;;10.30;99.90;;;;;;4380726;32;20156;-63
2021/05/14 04:59:04;;;;;;;37.77;24.13;;;10.30;99.90;;;;;;4381475;32;20155;-64
2021/05/14 05:01:31;;;;;;;35.73;23.57;;;10.40;99.90;;;;;;4383082;32;20208;-67
2021/05/14 05:03:59;;;;;;;38.57;24.87;;;10.30;99.90;;;;;;4390170;32;20182;-65
2021/05/14 05:06:27;;;;;;;35.00;22.03;;;10.30;99.90;;;;;;4386998;32;20160;-65
2021/05/14 05:08:53;;;;;;;38.97;25.57;;;10.40;99.90;;;;;;4385934;32;20153;-64
2021/05/14 05:11:20;;;;;;;37.93;23.13;;;10.40;99.90;;;;;;4390849;32;20270;-65
2021/05/14 05:13:46;;;;;;;37.27;24.77;;;10.40;99.90;;;;;;4391064;32;20158;-65
2021/05/14 05:16:14;;;;;;;37.03;23.80;;;10.40;99.90;;;;;;4389904;32;20195;-66
2021/05/14 05:18:40;;;;;;;33.27;22.53;;;10.40;99.90;;;;;;4385381;32;20159;-64
2021/05/14 05:21:07;;;;;;;35.37;22.03;;;10.40;99.90;;;;;;4384891;32;20156;-63
2021/05/14 05:23:37;;;;;;;36.13;22.47;;;10.40;99.90;;;;;;4388946;32;20159;-64
2021/05/14 05:26:03;;;;;;;33.10;23.33;;;10.40;99.90;;;;;;4390427;32;20146;-64
2021/05/14 05:28:32;;;;;;;33.00;22.00;;;10.40;99.90;;;;;;4385490;32;20175;-63
2021/05/14 05:30:59;;;;;;;37.70;23.97;;;10.40;99.90;;;;;;4382953;32;20231;-63
2021/05/14 05:33:27;;;;;;;42.67;24.57;;;10.40;99.90;;;;;;4377176;32;20176;-62
2021/05/14 05:35:54;;;;;;;39.80;23.90;;;10.20;99.90;;;;;;4384761;32;20578;-62
2021/05/14 05:38:24;;;;;;;36.20;24.20;;;10.30;99.90;;;;;;4386867;32;20155;-62
2021/05/14 05:40:51;;;;;;;36.90;25.43;;;10.50;99.90;;;;;;4390624;32;20157;-65
2021/05/14 05:43:19;;;;;;;37.53;24.33;;;10.50;99.90;;;;;;4389939;32;20174;-65
2021/05/14 05:45:46;;;;;;;35.63;24.57;;;10.40;99.90;;;;;;4390467;32;20177;-67
2021/05/14 05:48:12;;;;;;;31.90;22.40;;;10.40;99.90;;;;;;4385771;32;20249;-66
2021/05/14 05:50:39;;;;;;;30.43;23.07;;;10.40;99.90;;;;;;4375411;32;20147;-63
2021/05/14 05:53:07;;;;;;;32.47;23.03;;;10.50;99.90;;;;;;4386969;32;20177;-66
2021/05/14 05:55:34;;;;;;;32.03;22.60;;;10.70;99.90;;;;;;4390682;32;20197;-65
2021/05/14 05:58:05;;;;;;;33.77;22.93;;;10.70;99.90;;;;;;4390195;32;20159;-63
2021/05/14 06:00:32;;;;;;;32.00;22.43;;;10.70;99.90;;;;;;4390161;32;20634;-65
2021/05/14 06:03:00;;;;;;;31.03;22.37;;;10.80;99.90;;;;;;4389498;32;20162;-64
2021/05/14 06:05:26;;;;;;;33.53;23.47;;;10.80;99.90;;;;;;4390199;32;20498;-64
2021/05/14 06:07:52;;;;;;;31.60;22.70;;;10.80;99.90;;;;;;4390414;32;20151;-64
2021/05/14 06:10:19;;;;;;;33.50;21.03;;;10.80;99.90;;;;;;4376687;32;20589;-65
2021/05/14 06:12:46;;;;;;;33.60;21.97;;;10.90;99.90;;;;;;4374969;32;20195;-65
2021/05/14 06:15:14;;;;;;;30.90;22.07;;;10.90;99.90;;;;;;4376448;32;20536;-66
2021/05/14 06:17:42;;;;;;;28.67;20.97;;;10.80;99.90;;;;;;4377983;32;20156;-66
2021/05/14 06:20:11;;;;;;;28.63;21.20;;;10.90;99.90;;;;;;4389167;32;20179;-66
2021/05/14 06:22:38;;;;;;;26.43;19.83;;;11.00;99.90;;;;;;4389998;32;20170;-65
2021/05/14 06:25:05;;;;;;;32.70;21.63;;;11.20;99.90;;;;;;4390186;32;20189;-65
2021/05/14 06:27:33;;;;;;;26.43;20.87;;;11.30;99.90;;;;;;4388417;32;20252;-66
2021/05/14 06:30:00;;;;;;;27.87;19.00;;;11.40;99.90;;;;;;4386593;32;20213;-64
2021/05/14 06:32:27;;;;;;;26.03;18.87;;;11.40;99.90;;;;;;4390251;32;20156;-63
2021/05/14 06:34:54;;;;;;;28.13;20.97;;;11.40;99.90;;;;;;4391820;32;20567;-65
2021/05/14 06:37:21;;;;;;;26.93;19.40;;;11.30;99.90;;;;;;4392059;32;20286;-64
2021/05/14 06:39:49;;;;;;;27.33;19.30;;;11.30;99.90;;;;;;4390646;32;20238;-65
2021/05/14 06:42:16;;;;;;;26.87;19.17;;;11.40;99.90;;;;;;4391549;32;20148;-64
2021/05/14 06:44:47;;;;;;;26.97;19.20;;;11.50;99.90;;;;;;4391782;32;20202;-65
2021/05/14 06:57:21;;;;;;;20.97;16.67;;;11.70;99.90;;;;;;4391718;32;20621;-66
2021/05/14 06:59:48;;;;;;;25.63;16.80;;;11.80;99.90;;;;;;4389494;32;20252;-63
2021/05/14 07:02:14;;;;;;;25.13;16.87;;;11.80;99.90;;;;;;4391217;32;20551;-62
2021/05/14 07:04:40;;;;;;;20.47;17.10;;;11.70;99.90;;;;;;4391047;32;20278;-62
2021/05/14 07:07:07;;;;;;;20.47;16.70;;;11.60;99.90;;;;;;4391155;32;20158;-62
2021/05/14 07:09:34;;;;;;;22.53;17.27;;;11.70;99.90;;;;;;4390409;32;20207;-63
2021/05/14 07:12:01;;;;;;;25.73;17.13;;;11.80;99.90;;;;;;4389312;32;20249;-61
2021/05/14 07:14:28;;;;;;;25.37;18.13;;;11.80;99.90;;;;;;4390968;32;20179;-63
2021/05/14 07:16:55;;;;;;;20.83;15.40;;;12.00;99.90;;;;;;4391120;32;20167;-62
2021/05/14 07:19:21;;;;;;;21.13;15.33;;;12.20;99.90;;;;;;4390789;32;20214;-61
2021/05/14 07:21:47;;;;;;;20.43;15.53;;;12.60;99.90;;;;;;4386355;32;20164;-61
2021/05/14 07:24:14;;;;;;;19.13;15.00;;;12.90;99.90;;;;;;4390219;32;20233;-61
2021/05/14 07:26:40;;;;;;;19.13;15.20;;;13.20;99.90;;;;;;4397473;32;20231;-61
2021/05/14 07:29:07;;;;;;;19.30;14.70;;;13.40;99.90;;;;;;4405397;32;20194;-62
2021/05/14 07:31:35;;;;;;;14.67;12.70;;;13.80;99.90;;;;;;4400281;32;20152;-62
2021/05/14 07:34:01;;;;;;;16.17;11.63;;;14.50;99.60;;;;;;4403787;32;20227;-62
2021/05/14 07:36:28;;;;;;;12.17;10.00;;;16.80;97.50;;;;;;4405293;32;20194;-62
2021/05/14 07:38:55;;;;;;;10.90;9.80;;;19.30;89.50;;;;;;4405986;32;20159;-62
2021/05/14 07:41:22;;;;;;;10.60;9.47;;;20.90;83.30;;;;;;4404794;32;20200;-63
2021/05/14 07:43:48;;;;;;;10.70;9.70;;;21.10;76.70;;;;;;4403946;32;20513;-62
2021/05/14 07:46:14;;;;;;;10.83;9.57;;;19.50;80.60;;;;;;4406241;32;20223;-63
2021/05/14 07:48:42;;;;;;;10.60;9.30;;;18.10;85.40;;;;;;4403054;32;20317;-64
2021/05/14 07:51:09;;;;;;;9.87;8.53;;;19.10;85.80;;;;;;4404591;32;20214;-63
2021/05/14 07:53:35;;;;;;;9.60;8.57;;;21.00;80.10;;;;;;4400144;32;20164;-63
2021/05/14 07:56:02;;;;;;;9.13;8.07;;;24.30;70.20;;;;;;4398856;32;20275;-63
2021/05/14 07:58:28;;;;;;;9.43;7.60;;;24.40;63.60;;;;;;4404728;32;20222;-66
2021/05/14 08:00:54;;;;;;;9.03;7.83;;;23.70;65.00;;;;;;4405840;32;20643;-63
2021/05/14 08:03:21;;;;;;;8.97;7.57;;;23.60;64.50;;;;;;4404140;32;20235;-66
2021/05/14 08:05:50;;;;;;;9.70;8.17;;;23.40;66.30;;;;;;4404898;32;20208;-65
2021/05/14 08:08:18;;;;;;;9.90;7.40;;;22.90;65.40;;;;;;4405188;32;20167;-63
2021/05/14 08:10:45;;;;;;;11.10;9.93;;;23.00;67.00;;;;;;4402502;32;20160;-66
2021/05/14 08:13:11;;;;;;;9.30;8.40;;;21.80;69.10;;;;;;4405109;32;20670;-63
2021/05/14 08:15:39;;;;;;;8.63;7.63;;;20.70;72.50;;;;;;4403053;32;20163;-67
2021/05/14 08:18:06;;;;;;;11.30;9.27;;;19.40;76.90;;;;;;4405062;32;20179;-67
2021/05/14 08:20:33;;;;;;;10.93;9.53;;;18.60;81.00;;;;;;4406066;32;20163;-65
2021/05/14 08:23:00;;;;;;;12.37;10.10;;;17.70;84.80;;;;;;4403700;32;20286;-62
2021/05/14 08:25:27;;;;;;;9.87;8.87;;;17.10;87.50;;;;;;4403847;32;20179;-64
2021/05/14 08:27:53;;;;;;;12.07;10.73;;;16.70;90.20;;;;;;4404238;32;21441;-66
2021/05/14 08:30:30;;;;;;;13.90;11.80;;;16.20;90.70;;;;;;4397465;32;20254;-63
2021/05/14 08:32:57;;;;;;;12.87;10.23;;;15.80;91.60;;;;;;4395527;32;20147;-64
2021/05/14 08:35:23;;;;;;;13.87;10.70;;;15.50;92.60;;;;;;4404943;32;20171;-64
2021/05/14 08:37:52;;;;;;;12.00;10.70;;;15.30;93.50;;;;;;4405609;32;20240;-64
2021/05/14 08:40:19;;;;;;;13.07;10.53;;;15.30;93.20;;;;;;4407282;32;20178;-65
2021/05/14 08:42:45;;;;;;;14.17;11.87;;;15.10;93.40;;;;;;4405414;32;20640;-65
2021/05/14 08:45:14;;;;;;;12.67;10.90;;;14.90;94.00;;;;;;4405531;32;20191;-66
2021/05/14 08:47:42;;;;;;;14.80;12.53;;;14.70;94.40;;;;;;4405366;32;20614;-65
2021/05/14 08:50:11;;;;;;;13.47;12.13;;;14.60;95.20;;;;;;4405734;32;20482;-65
2021/05/14 08:52:39;;;;;;;13.97;12.33;;;14.50;95.50;;;;;;4402577;32;20205;-68
2021/05/14 08:55:07;;;;;;;15.33;12.63;;;14.30;96.40;;;;;;4405439;32;20179;-65
2021/05/14 08:57:35;;;;;;;14.90;12.57;;;14.20;97.10;;;;;;4405467;32;20228;-64
2021/05/14 09:00:01;;;;;;;15.33;12.20;;;14.20;97.00;;;;;;4404895;32;20580;-66
2021/05/14 09:02:27;;;;;;;19.50;13.77;;;14.10;97.20;;;;;;4405706;32;20632;-64
2021/05/14 09:04:54;;;;;;;16.00;13.63;;;14.00;98.00;;;;;;4405825;32;20144;-66
2021/05/14 09:07:22;;;;;;;16.07;12.97;;;13.90;98.00;;;;;;4405523;32;20163;-66
2021/05/14 09:10:06;;;;;;;15.60;13.80;;;13.90;98.10;;;;;;4405339;32;20160;-65
2021/05/14 09:12:33;;;;;;;21.40;14.50;;;13.90;98.10;;;;;;4403034;32;20246;-64
2021/05/14 09:15:19;;;;;;;14.73;13.07;;;13.70;98.20;;;;;;4397377;32;20211;-66
2021/05/14 09:18:08;;;;;;;16.67;13.70;;;13.80;98.90;;;;;;4404882;32;20627;-66
2021/05/14 09:20:35;;;;;;;19.67;15.63;;;13.80;99.10;;;;;;4395971;32;20159;-65
2021/05/14 09:23:03;;;;;;;19.50;15.07;;;13.60;98.60;;;;;;4401916;32;20227;-65
2021/05/14 09:25:29;;;;;;;18.77;15.00;;;13.60;99.10;;;;;;4405374;32;20615;-66
2021/05/14 09:27:55;;;;;;;18.87;14.37;;;14.00;99.20;;;;;;4399392;32;20225;-64
2021/05/14 09:30:23;;;;;;;14.83;13.23;;;14.10;98.70;;;;;;4393908;32;20180;-65
2021/05/14 09:32:49;;;;;;;19.47;14.80;;;14.10;98.70;;;;;;4400221;32;20194;-65
2021/05/14 09:35:15;;;;;;;22.27;17.43;;;13.70;98.80;;;;;;4402665;32;20639;-64
2021/05/14 09:37:51;;;;;;;20.57;16.47;;;13.90;99.00;;;;;;4399087;32;20156;-65
2021/05/14 09:40:18;;;;;;;20.27;16.70;;;14.30;97.70;;;;;;4392196;32;20186;-65
2021/05/14 09:42:46;;;;;;;24.30;18.17;;;14.80;97.40;;;;;;4402232;32;20164;-65
2021/05/14 09:45:45;;;;;;;21.83;18.20;;;14.90;96.20;;;;;;4402393;32;20256;-65
2021/05/14 09:48:15;;;;;;;25.83;19.57;;;15.70;95.90;;;;;;4383069;32;20210;-66
2021/05/14 09:50:42;;;;;;;21.67;14.53;;;16.80;94.50;;;;;;4390953;32;20226;-67
2021/05/14 09:53:12;;;;;;;19.53;15.07;;;17.80;91.90;;;;;;4387537;32;20200;-65
2021/05/14 09:55:44;;;;;;;18.93;15.13;;;17.70;91.80;;;;;;4396768;32;20228;-67
2021/05/14 09:58:13;;;;;;;19.57;15.90;;;17.70;91.40;;;;;;4395886;32;20168;-64
2021/05/14 10:00:40;;;;;;;22.97;16.43;;;17.90;90.80;;;;;;4395153;32;20155;-67
2021/05/14 10:03:09;;;;;;;24.57;17.90;;;18.50;89.80;;;;;;4387556;32;20538;-66
2021/05/14 10:05:37;;;;;;;25.33;17.73;;;19.00;86.80;;;;;;4390230;32;20213;-68
2021/05/14 10:08:08;;;;;;;20.83;16.67;;;19.30;83.70;;;;;;4397486;32;20152;-67
2021/05/14 10:10:36;;;;;;;21.53;17.63;;;20.00;82.10;;;;;;4396215;32;20152;-66
2021/05/14 10:13:03;;;;;;;24.20;17.07;;;20.30;81.00;;;;;;4399927;32;20187;-67
2021/05/14 10:15:31;;;;;;;19.60;16.13;;;20.40;79.30;;;;;;4395983;32;20175;-66
2021/05/14 10:18:00;;;;;;;20.87;16.90;;;20.10;80.40;;;;;;4398576;32;20176;-67
2021/05/14 10:20:32;;;;;;;20.43;16.80;;;19.60;79.20;;;;;;4399534;32;20485;-67
2021/05/14 10:23:00;;;;;;;19.30;16.47;;;18.50;81.70;;;;;;4397625;32;20488;-68
2021/05/14 10:25:44;;;;;;;20.53;15.53;;;18.50;86.20;;;;;;4399787;32;20185;-64
2021/05/14 10:28:13;;;;;;;20.20;14.63;;;18.70;85.40;;;;;;4396590;32;20152;-67
2021/05/14 10:31:15;;;;;;;17.97;14.27;;;18.80;85.70;;;;;;4397439;32;20243;-65
2021/05/14 10:33:44;;;;;;;17.17;14.60;;;18.80;83.10;;;;;;4403008;32;20234;-66
2021/05/14 10:36:12;;;;;;;16.97;14.20;;;18.70;84.70;;;;;;4401165;32;20174;-65
2021/05/14 10:38:38;;;;;;;17.23;14.27;;;19.00;82.60;;;;;;4403710;32;20456;-67
2021/05/14 10:41:24;;;;;;;18.83;14.03;;;18.90;81.90;;;;;;4400792;32;20698;-65
2021/05/14 10:44:05;;;;;;;16.37;13.53;;;18.60;86.00;;;;;;4402573;32;20250;-67
2021/05/14 10:46:32;;;;;;;16.60;13.10;;;19.60;82.90;;;;;;4402621;32;20163;-66
2021/05/14 10:49:04;;;;;;;17.53;13.30;;;19.90;78.40;;;;;;4394653;32;20207;-64
2021/05/14 10:51:59;;;;;;;19.10;13.53;;;19.50;80.30;;;;;;4402020;32;20235;-65
2021/05/14 10:54:53;;;;;;;16.13;13.17;;;19.20;80.80;;;;;;4404234;32;20197;-63
2021/05/14 10:57:47;;;;;;;17.03;13.50;;;19.20;81.90;;;;;;4392588;32;20427;-67
2021/05/14 11:00:32;;;;;;;18.87;13.53;;;17.90;84.10;;;;;;4401875;32;20171;-66
2021/05/14 11:03:19;;;;;;;17.63;13.07;;;18.10;87.50;;;;;;4403409;32;20152;-63
2021/05/14 11:05:48;;;;;;;18.47;12.87;;;18.00;85.30;;;;;;4403556;32;20186;-65
2021/05/14 11:08:40;;;;;;;18.80;13.53;;;17.90;85.60;;;;;;4401998;32;20621;-65
2021/05/14 11:11:10;;;;;;;18.07;12.83;;;17.60;87.90;;;;;;4402882;32;20191;-67
2021/05/14 11:13:38;;;;;;;16.07;13.40;;;18.30;85.50;;;;;;4402876;32;20160;-67
2021/05/14 11:16:30;;;;;;;16.97;12.37;;;18.80;86.00;;;;;;4402473;32;20859;-66
2021/05/14 11:18:57;;;;;;;16.43;13.03;;;18.90;84.40;;;;;;4404648;32;20230;-65
2021/05/14 11:22:00;;;;;;;17.30;13.43;;;18.20;84.20;;;;;;4406122;32;20256;-64
2021/05/14 11:24:28;;;;;;;19.30;13.90;;;17.50;89.10;;;;;;4404862;32;20254;-66
2021/05/14 11:27:04;;;;;;;15.73;12.27;;;17.90;86.60;;;;;;4406241;32;20212;-65
2021/05/14 11:29:36;;;;;;;19.50;13.50;;;18.50;86.00;;;;;;4406061;32;20182;-65
2021/05/14 11:32:28;;;;;;;14.07;10.90;;;18.60;85.20;;;;;;4405624;32;20262;-67
2021/05/14 11:35:04;;;;;;;14.60;11.40;;;18.90;83.50;;;;;;4378607;32;20191;-66
2021/05/14 11:37:33;;;;;;;16.27;12.50;;;18.80;81.40;;;;;;4383136;32;20770;-66
2021/05/14 11:40:09;;;;;;;15.53;11.87;;;17.70;84.40;;;;;;4382323;32;20187;-65
2021/05/14 11:42:39;;;;;;;17.37;11.63;;;18.50;84.60;;;;;;4375071;32;20759;-64
2021/05/14 11:45:08;;;;;;;14.80;11.70;;;17.90;83.80;;;;;;4375177;32;20330;-67
2021/05/14 11:47:37;;;;;;;14.37;11.20;;;18.10;84.80;;;;;;4372334;32;20214;-64
2021/05/14 11:50:08;;;;;;;15.90;12.30;;;18.10;85.20;;;;;;4372863;32;20307;-65
2021/05/14 11:52:38;;;;;;;15.50;11.77;;;17.30;86.20;;;;;;4374437;32;20278;-66
2021/05/14 11:55:07;;;;;;;17.03;12.07;;;17.50;87.10;;;;;;4381924;32;20470;-67
2021/05/14 11:57:34;;;;;;;17.87;11.73;;;17.50;84.00;;;;;;4382659;32;20230;-65
2021/05/14 12:00:00;;;;;;;15.20;11.03;;;17.40;86.30;;;;;;4380759;32;20179;-67
2021/05/14 12:02:41;;;;;;;14.50;10.93;;;16.70;87.40;;;;;;4381185;32;20219;-66
2021/05/14 12:05:09;;;;;;;14.43;11.53;;;16.70;90.00;;;;;;4380092;32;20214;-67
2021/05/14 12:07:37;;;;;;;16.03;10.50;;;17.10;88.90;;;;;;4381001;32;20477;-66
2021/05/14 12:10:05;;;;;;;11.70;9.60;;;17.70;86.20;;;;;;4381851;32;20284;-67
2021/05/14 12:12:32;;;;;;;11.77;9.77;;;17.70;86.50;;;;;;4403456;32;20183;-68
2021/05/14 12:15:14;;;;;;;14.73;9.03;;;17.60;86.30;;;;;;4404508;32;20228;-65
2021/05/14 12:17:41;;;;;;;11.67;8.20;;;17.90;84.10;;;;;;4402866;32;20198;-68
2021/05/14 12:20:16;;;;;;;13.27;9.07;;;17.90;84.90;;;;;;4405262;32;20607;-68
2021/05/14 12:22:45;;;;;;;15.57;8.73;;;18.10;84.50;;;;;;4405087;32;20190;-65
2021/05/14 12:25:13;;;;;;;11.00;7.77;;;18.60;83.90;;;;;;4404403;32;20526;-65
2021/05/14 12:27:40;;;;;;;10.97;7.77;;;18.80;79.20;;;;;;4404384;32;20557;-65
2021/05/14 12:30:09;;;;;;;11.47;7.90;;;18.80;79.60;;;;;;4404112;32;20179;-65
2021/05/14 12:32:35;;;;;;;10.90;8.03;;;18.00;79.50;;;;;;4403897;32;20587;-65
2021/05/14 12:35:02;;;;;;;11.17;7.77;;;17.60;83.40;;;;;;4405150;32;20194;-66
2021/05/14 12:37:28;;;;;;;11.20;7.87;;;17.20;82.50;;;;;;4405353;32;20175;-68
2021/05/14 12:39:55;;;;;;;11.77;7.23;;;17.20;82.30;;;;;;4395913;32;20219;-65
2021/05/14 12:42:32;;;;;;;10.87;8.00;;;16.50;85.90;;;;;;4395104;32;20285;-65
2021/05/14 12:45:00;;;;;;;10.00;7.43;;;16.80;86.90;;;;;;4398227;32;20222;-66
2021/05/14 12:47:28;;;;;;;12.23;7.33;;;16.50;88.40;;;;;;4396261;32;20168;-66
2021/05/14 12:49:56;;;;;;;13.60;7.50;;;16.90;88.00;;;;;;4402457;32;20283;-64
2021/05/14 12:52:25;;;;;;;10.47;9.10;;;16.90;86.80;;;;;;4402289;32;20176;-67
2021/05/14 12:54:57;;;;;;;11.90;9.30;;;16.70;88.10;;;;;;4405789;32;20699;-67
2021/05/14 12:57:25;;;;;;;11.30;8.47;;;16.60;86.10;;;;;;4402348;32;20238;-67
2021/05/14 12:59:52;;;;;;;12.27;7.53;;;15.90;87.50;;;;;;4397309;32;20151;-67
2021/05/14 13:02:20;;;;;;;10.23;7.07;;;16.30;88.00;;;;;;4399205;32;20214;-66
2021/05/14 13:04:59;;;;;;;9.43;6.27;;;16.80;86.90;;;;;;4405194;32;20168;-66
2021/05/14 13:07:31;;;;;;;9.37;6.50;;;17.30;85.00;;;;;;4404306;32;20195;-65